Airfield :







YOU CAN JOIN US ON...

 
LOGIN :

Register | Disclaimer

   EN    FR    IT 

 









Legend :    VFR   Marginal VFR   IFR   Intensive IFR   Very Intensive IFR
Visi :
Ceiling :
>= 8 km
>= 3000ft
5 to 8 km
1000 to 3000 ft
1500m to 5 km
500 to 1000 ft
800 to 1500m
200 to 500 ft
< 800m
< 200 ft
Symbols :   Thunderstorms  Fog  Heavy snow  Heavy precipitations  Wind > 20 kt






- Airport Elevation : 165 ft
- IATA code : SFJ


BGSF - KangerLussuaq

CURRENT METAR :
  • 090750Z AUTO 04005KT 7000NDV DZ BKN013/// OVC018/// 05/05 Q1000

EXPIRED METARs :
  • 090650Z AUTO 05005KT 9999NDV DZ FEW014/// BKN030/// BKN035/// 05/04 Q1000
  • 090550Z AUTO 05006KT 9999NDV DZ FEW034/// SCT044/// OVC050/// 05/04 Q1000

TAF AMD TAF BGSF
Valid from the 09 at 08:00 until the 09 at 23:00 UTC


090759Z 0908/0923 05006KT 4000 -RADZ BKN013
BECMG 0908/0911 9999 NSW SCT018 BKN025
TEMPO 0911/0913 -RADZ BKN018
TEMPO 0913/0923 BKN040
BGGL FIR / North America



MET'MAP, your aeronautical weather chart ! - Copyright ORBIFLY December 2007 - Disclaimer

ORBIFLY MET'MAP TEAM :

Programming & Development : Alexandra Zaïnal
Original concept : Baudouin d'Aumeries
Technical & hardware support : Manuel Goepfert
Assistance : Marc-Olivier Méhu




SOURCES & CREDITS :

   NOAA